Time;durP1;ratioP1;P1;durP2;ratioP2;P2;SDS_P1;SDS_P2;PMS_P1;PMS_P2;Temp;Humidity;BMP_temperature;BMP_pressure;BME280_temperature;BME280_humidity;BME280_pressure;Samples;Min_cycle;Max_cycle;Signal;HPM_P1;HPM_P2
2022/12/19 00:01:42;;;;;;;63.15;25.15;;;-2.10;99.90;;;;;;5010247;28;20034;-77
2022/12/19 00:04:11;;;;;;;56.70;24.35;;;-2.10;99.90;;;;;;5005073;28;20048;-78
2022/12/19 00:06:37;;;;;;;59.85;24.55;;;-2.00;99.90;;;;;;5010471;28;20028;-77
2022/12/19 00:09:04;;;;;;;55.17;22.45;;;-2.00;99.90;;;;;;5012827;28;20045;-77
2022/12/19 00:11:33;;;;;;;63.33;24.05;;;-2.00;99.90;;;;;;5014980;28;20057;-77
2022/12/19 00:13:59;;;;;;;63.92;25.70;;;-2.00;99.90;;;;;;5012927;28;20069;-78
2022/12/19 00:16:27;;;;;;;62.38;25.45;;;-1.90;99.90;;;;;;5009899;28;20026;-77
2022/12/19 00:18:58;;;;;;;67.40;26.70;;;-1.90;99.90;;;;;;5012150;28;20505;-77
2022/12/19 00:21:28;;;;;;;68.25;27.23;;;-1.90;99.90;;;;;;5008441;28;20049;-77
2022/12/19 00:23:57;;;;;;;63.28;26.45;;;-1.90;99.90;;;;;;5009459;28;20083;-77
2022/12/19 00:26:25;;;;;;;57.08;25.15;;;-1.80;99.90;;;;;;5013697;28;20022;-76
2022/12/19 00:29:03;;;;;;;66.70;27.25;;;-1.80;99.90;;;;;;5010613;28;20052;-77
2022/12/19 00:31:30;;;;;;;70.60;27.55;;;-1.80;99.90;;;;;;5011633;28;20040;-77
2022/12/19 00:33:59;;;;;;;67.35;27.23;;;-1.80;99.90;;;;;;5010763;28;20109;-77
2022/12/19 00:36:32;;;;;;;61.45;25.25;;;-1.70;99.90;;;;;;5014730;28;20054;-78
2022/12/19 00:39:05;;;;;;;58.75;25.25;;;-1.70;99.90;;;;;;5029560;28;20109;-77
2022/12/19 00:41:35;;;;;;;58.35;24.67;;;-1.70;99.90;;;;;;5012356;28;20018;-78
2022/12/19 00:44:06;;;;;;;59.83;25.30;;;-1.70;99.90;;;;;;5012703;28;20035;-78
2022/12/19 00:46:33;;;;;;;65.65;28.00;;;-1.70;99.90;;;;;;5009789;28;20048;-78
2022/12/19 00:49:00;;;;;;;58.65;25.67;;;-1.70;99.90;;;;;;5013786;28;20037;-77
2022/12/19 00:51:28;;;;;;;63.17;28.27;;;-1.70;99.90;;;;;;5010672;28;20022;-77
2022/12/19 00:53:56;;;;;;;68.03;26.45;;;-1.70;99.90;;;;;;5011853;28;20030;-77
2022/12/19 00:56:24;;;;;;;66.43;25.52;;;-1.60;99.90;;;;;;5013544;28;20037;-76
2022/12/19 00:58:57;;;;;;;63.53;25.92;;;-1.60;99.90;;;;;;5005972;28;20034;-76
2022/12/19 01:01:25;;;;;;;63.40;26.30;;;-1.60;99.90;;;;;;5008005;28;20474;-76
2022/12/19 01:03:52;;;;;;;55.65;22.10;;;-1.60;99.90;;;;;;5001740;28;20077;-76
2022/12/19 01:06:20;;;;;;;75.13;28.58;;;-1.60;99.90;;;;;;5007492;28;20077;-77
2022/12/19 01:08:46;;;;;;;69.47;27.38;;;-1.60;99.90;;;;;;5011664;28;20501;-77
2022/12/19 01:11:12;;;;;;;109.97;36.45;;;-1.60;99.90;;;;;;5012115;28;20026;-77
2022/12/19 01:13:39;;;;;;;82.07;30.88;;;-1.60;99.90;;;;;;5010635;28;20030;-76
2022/12/19 01:16:11;;;;;;;67.88;26.75;;;-1.50;99.90;;;;;;5011323;28;20038;-76
2022/12/19 01:18:39;;;;;;;62.08;25.13;;;-1.50;99.90;;;;;;5013543;28;20355;-78
2022/12/19 01:21:11;;;;;;;58.40;24.88;;;-1.50;99.90;;;;;;5012389;28;20034;-77
2022/12/19 01:23:40;;;;;;;58.10;25.00;;;-1.50;99.90;;;;;;5014182;28;20026;-76
2022/12/19 01:26:06;;;;;;;56.33;23.88;;;-1.50;99.90;;;;;;5011085;28;20026;-77
2022/12/19 01:28:38;;;;;;;59.05;24.73;;;-1.50;99.90;;;;;;5009898;28;20022;-77
2022/12/19 01:31:16;;;;;;;64.30;25.52;;;-1.50;99.90;;;;;;5012683;28;20077;-77
2022/12/19 01:33:41;;;;;;;54.10;24.00;;;-1.50;99.90;;;;;;5011484;28;20494;-77
2022/12/19 01:36:10;;;;;;;60.05;24.05;;;-1.40;99.90;;;;;;5011643;28;20032;-77
2022/12/19 01:38:39;;;;;;;55.58;24.80;;;-1.40;99.90;;;;;;5012097;28;20093;-76
2022/12/19 01:41:04;;;;;;;58.50;24.92;;;-1.40;99.90;;;;;;5009949;28;20037;-77
2022/12/19 01:43:51;;;;;;;64.35;24.58;;;-1.40;99.90;;;;;;5013535;28;20553;-77
2022/12/19 01:46:56;;;;;;;64.50;24.80;;;-1.40;99.90;;;;;;5005370;28;20057;-78
2022/12/19 01:49:26;;;;;;;;;;;-1.40;99.90;;;;;;4995922;28;20034;-79
2022/12/19 01:51:57;;;;;;;59.42;21.70;;;-1.30;99.90;;;;;;5018252;28;19910;-79
2022/12/19 01:54:33;;;;;;;58.65;22.35;;;-1.30;99.90;;;;;;5015188;28;20530;-78
2022/12/19 01:57:05;;;;;;;60.17;22.80;;;-1.30;99.90;;;;;;5017553;28;20081;-79
2022/12/19 01:59:37;;;;;;;56.60;22.10;;;-1.30;99.90;;;;;;5019856;28;20041;-79
2022/12/19 02:02:22;;;;;;;59.35;22.95;;;-1.20;99.90;;;;;;5011793;28;20053;-79
2022/12/19 02:04:50;;;;;;;54.83;21.42;;;-1.20;99.90;;;;;;5013936;28;20022;-79
2022/12/19 02:07:18;;;;;;;52.42;20.23;;;-1.10;99.90;;;;;;5015194;28;20117;-78
2022/12/19 02:09:47;;;;;;;53.10;19.88;;;-1.10;99.90;;;;;;5013795;28;20545;-78
2022/12/19 02:12:13;;;;;;;52.35;19.85;;;-1.10;99.90;;;;;;5013832;28;20619;-77
2022/12/19 02:14:46;;;;;;;51.00;19.48;;;-1.00;99.90;;;;;;5008637;28;20056;-76
2022/12/19 02:17:33;;;;;;;49.92;18.48;;;-0.90;99.90;;;;;;5007790;28;20487;-79
2022/12/19 02:20:24;;;;;;;50.30;19.63;;;-0.80;99.90;;;;;;5010391;28;20121;-79
2022/12/19 02:23:24;;;;;;;51.10;17.92;;;-0.80;99.90;;;;;;5013465;28;20026;-78
2022/12/19 02:26:29;;;;;;;50.63;18.65;;;-0.70;99.90;;;;;;5016138;28;20061;-77
2022/12/19 02:28:58;;;;;;;48.15;18.55;;;-0.70;99.90;;;;;;5012605;28;20029;-77
2022/12/19 02:31:43;;;;;;;47.20;18.15;;;-0.60;99.90;;;;;;5014810;28;20052;-79
2022/12/19 02:34:41;;;;;;;44.53;18.05;;;-0.50;99.90;;;;;;5010285;28;20387;-79
2022/12/19 02:37:19;;;;;;;52.10;17.70;;;-0.50;99.90;;;;;;5014548;28;20482;-79
2022/12/19 02:40:13;;;;;;;47.90;17.85;;;-0.50;99.90;;;;;;5010443;28;20023;-77
2022/12/19 02:42:42;;;;;;;50.33;20.17;;;-0.40;99.90;;;;;;5009023;28;20061;-77
2022/12/19 02:45:12;;;;;;;50.50;20.70;;;-0.40;99.90;;;;;;5010226;28;20112;-75
2022/12/19 02:47:42;;;;;;;59.33;23.83;;;-0.40;99.90;;;;;;5006926;28;20056;-76
2022/12/19 02:50:12;;;;;;;61.13;24.65;;;-0.40;99.90;;;;;;5005423;28;20029;-75
2022/12/19 02:52:37;;;;;;;61.75;26.83;;;-0.40;99.90;;;;;;5004227;28;20029;-76
2022/12/19 02:55:16;;;;;;;60.60;26.30;;;-0.40;99.90;;;;;;5007383;28;20483;-76
2022/12/19 02:57:42;;;;;;;64.30;28.05;;;-0.50;99.90;;;;;;5001128;28;20042;-76
2022/12/19 03:00:22;;;;;;;56.67;25.88;;;-0.50;99.90;;;;;;5006956;28;20045;-76
2022/12/19 03:03:42;;;;;;;65.22;28.52;;;-0.50;99.90;;;;;;5009191;28;20049;-76
2022/12/19 03:06:23;;;;;;;65.82;29.88;;;-0.50;99.90;;;;;;4943729;28;20033;-78
2022/12/19 03:09:14;;;;;;;64.22;27.35;;;-0.60;99.90;;;;;;5007613;28;20037;-78
2022/12/19 03:11:41;;;;;;;65.93;29.00;;;-0.60;99.90;;;;;;5011427;28;20034;-78
2022/12/19 03:14:17;;;;;;;56.97;27.17;;;-0.60;99.90;;;;;;5012315;28;20030;-78
2022/12/19 03:16:43;;;;;;;69.53;27.92;;;-0.60;99.90;;;;;;5012158;28;20068;-78
2022/12/19 03:19:15;;;;;;;64.03;29.35;;;-0.60;99.90;;;;;;5013771;28;20033;-78
2022/12/19 03:21:45;;;;;;;67.22;28.73;;;-0.60;99.90;;;;;;5014220;28;20029;-78
2022/12/19 03:24:15;;;;;;;70.18;27.75;;;-0.70;99.90;;;;;;5013700;28;20044;-78
2022/12/19 03:27:17;;;;;;;62.88;27.38;;;-0.70;99.90;;;;;;5016224;28;20030;-78
2022/12/19 03:30:03;;;;;;;61.00;26.70;;;-0.70;99.90;;;;;;5010392;28;20079;-78
2022/12/19 03:32:39;;;;;;;63.30;28.20;;;-0.80;99.90;;;;;;5006016;28;20391;-77
2022/12/19 03:35:13;;;;;;;67.88;27.75;;;-0.80;99.90;;;;;;5010900;28;20095;-77
2022/12/19 03:37:40;;;;;;;61.63;27.90;;;-0.80;99.90;;;;;;5011614;28;20064;-77
2022/12/19 03:40:14;;;;;;;62.55;28.23;;;-0.80;99.90;;;;;;5008619;28;20084;-77
2022/12/19 03:45:33;;;;;;;65.65;28.60;;;-0.80;99.90;;;;;;5012133;28;20036;-77
2022/12/19 03:48:05;;;;;;;61.67;27.70;;;-0.80;99.90;;;;;;5009038;28;20029;-77
2022/12/19 03:50:44;;;;;;;67.88;28.88;;;-0.80;99.90;;;;;;5005501;28;20030;-77
2022/12/19 03:53:26;;;;;;;72.30;28.77;;;-0.80;99.90;;;;;;5006187;28;20041;-77
2022/12/19 03:56:04;;;;;;;57.08;26.33;;;-0.70;99.90;;;;;;5006056;28;20033;-76
2022/12/19 03:58:38;;;;;;;60.80;25.42;;;-0.70;99.90;;;;;;5024794;28;20125;-76
2022/12/19 04:01:05;;;;;;;58.13;25.75;;;-0.70;99.90;;;;;;5007840;28;20513;-76
2022/12/19 04:03:37;;;;;;;57.33;25.13;;;-0.70;99.90;;;;;;5006576;28;20464;-76
2022/12/19 04:06:04;;;;;;;56.58;23.85;;;-0.70;99.90;;;;;;5006824;28;20033;-76
2022/12/19 04:08:43;;;;;;;56.38;25.73;;;-0.60;99.90;;;;;;5009860;28;20040;-76
2022/12/19 04:11:17;;;;;;;61.97;26.15;;;-0.60;99.90;;;;;;5005444;28;20121;-77
2022/12/19 04:14:00;;;;;;;57.22;25.90;;;-0.60;99.90;;;;;;5005759;28;20038;-76
2022/12/19 04:16:44;;;;;;;55.67;24.33;;;-0.50;99.90;;;;;;5010904;28;20026;-77
2022/12/19 04:19:36;;;;;;;49.45;23.52;;;-0.50;99.90;;;;;;5005672;28;20037;-76
2022/12/19 04:22:11;;;;;;;57.58;23.35;;;-0.50;99.90;;;;;;5009619;28;20034;-76
2022/12/19 04:24:42;;;;;;;61.95;26.08;;;-0.50;99.90;;;;;;5025496;23;20038;-71
2022/12/19 04:27:09;;;;;;;54.58;24.20;;;-0.40;99.90;;;;;;4988985;28;20088;-71
2022/12/19 04:29:37;;;;;;;61.65;26.13;;;-0.40;99.90;;;;;;4990637;28;20030;-72
2022/12/19 04:32:04;;;;;;;60.20;26.40;;;-0.40;99.90;;;;;;4987058;28;20034;-74
2022/12/19 04:34:30;;;;;;;51.97;23.77;;;-0.40;99.90;;;;;;5000442;28;20394;-72
2022/12/19 04:36:56;;;;;;;59.40;26.52;;;-0.40;99.90;;;;;;5012327;28;20022;-73
2022/12/19 04:39:21;;;;;;;57.92;24.20;;;-0.30;99.90;;;;;;5008451;28;20549;-72
2022/12/19 04:41:50;;;;;;;54.85;24.08;;;-0.30;99.90;;;;;;5013345;28;20108;-71
2022/12/19 04:44:16;;;;;;;55.80;23.77;;;-0.30;99.90;;;;;;5007920;28;20025;-72
2022/12/19 04:46:44;;;;;;;53.42;25.50;;;-0.30;99.90;;;;;;5008137;28;20030;-74
2022/12/19 04:49:13;;;;;;;59.17;24.55;;;-0.20;99.90;;;;;;5006826;28;20041;-72
2022/12/19 04:51:38;;;;;;;54.10;22.35;;;-0.20;99.90;;;;;;5009419;28;20030;-73
2022/12/19 04:54:10;;;;;;;52.63;24.65;;;-0.10;99.90;;;;;;5012357;28;20033;-73
2022/12/19 04:56:36;;;;;;;49.78;22.30;;;0.00;99.90;;;;;;5009430;28;20084;-72
2022/12/19 04:59:13;;;;;;;52.75;24.17;;;0.00;99.90;;;;;;5007444;28;20026;-72
2022/12/19 05:01:39;;;;;;;56.10;24.42;;;0.00;99.90;;;;;;5009015;28;20080;-72
2022/12/19 05:04:04;;;;;;;58.33;24.40;;;0.00;99.90;;;;;;5009396;28;20030;-72
2022/12/19 05:06:30;;;;;;;55.13;22.45;;;0.10;99.90;;;;;;5004883;28;20101;-73
2022/12/19 05:08:56;;;;;;;51.90;25.30;;;0.10;99.90;;;;;;5003080;28;20033;-72
2022/12/19 05:11:27;;;;;;;56.90;22.33;;;0.10;99.90;;;;;;5006399;28;20038;-72
2022/12/19 05:13:53;;;;;;;54.30;22.42;;;0.20;99.90;;;;;;5008832;28;20035;-72
2022/12/19 05:16:19;;;;;;;51.38;20.00;;;0.20;99.90;;;;;;5010934;28;20467;-72
2022/12/19 05:18:47;;;;;;;50.15;19.70;;;0.30;99.90;;;;;;5009696;28;20093;-72
2022/12/19 05:21:20;;;;;;;36.75;15.38;;;0.30;99.90;;;;;;5009894;28;20073;-72
2022/12/19 05:23:45;;;;;;;35.85;15.55;;;0.40;99.90;;;;;;5006352;28;20050;-72
2022/12/19 05:26:14;;;;;;;39.50;16.58;;;0.50;99.90;;;;;;5007055;28;20108;-72
2022/12/19 05:28:40;;;;;;;36.78;15.70;;;0.60;99.90;;;;;;5006185;28;20034;-72
2022/12/19 05:31:19;;;;;;;36.92;16.85;;;0.70;99.90;;;;;;5010279;28;20498;-72
2022/12/19 05:33:48;;;;;;;43.35;16.73;;;0.70;99.90;;;;;;5009459;28;20235;-72
2022/12/19 05:36:15;;;;;;;42.80;18.13;;;0.80;99.90;;;;;;5013116;28;20029;-72
2022/12/19 05:38:44;;;;;;;43.03;17.30;;;0.90;99.90;;;;;;5019032;28;20030;-72
2022/12/19 05:41:15;;;;;;;47.13;17.95;;;0.80;99.90;;;;;;5007811;28;20049;-72
2022/12/19 05:43:41;;;;;;;49.10;18.80;;;0.90;99.90;;;;;;5010042;28;20053;-71
2022/12/19 05:46:07;;;;;;;44.95;19.42;;;0.80;99.90;;;;;;5010668;28;20030;-71
2022/12/19 05:48:34;;;;;;;52.38;21.60;;;0.80;99.90;;;;;;5008247;28;20026;-71
2022/12/19 05:51:03;;;;;;;53.17;23.05;;;0.90;99.90;;;;;;5019149;28;20033;-71
2022/12/19 05:53:29;;;;;;;61.65;24.25;;;0.80;99.90;;;;;;5010359;28;20140;-72
2022/12/19 05:56:11;;;;;;;61.65;26.30;;;0.80;99.90;;;;;;5004324;28;20100;-74
2022/12/19 05:58:41;;;;;;;68.78;33.17;;;0.70;99.90;;;;;;5002585;28;20029;-63
2022/12/19 06:01:17;;;;;;;78.97;41.40;;;0.60;99.90;;;;;;5011157;28;20033;-63
2022/12/19 06:03:46;;;;;;;82.28;41.47;;;0.60;99.90;;;;;;5006543;28;20029;-64
2022/12/19 06:06:14;;;;;;;74.20;33.58;;;0.60;99.90;;;;;;5010946;28;20119;-63
2022/12/19 06:08:40;;;;;;;63.92;28.33;;;0.60;99.90;;;;;;5004544;28;20080;-63
2022/12/19 06:11:13;;;;;;;62.08;27.98;;;0.60;99.90;;;;;;4999592;28;20038;-73
2022/12/19 06:13:39;;;;;;;64.43;26.40;;;0.60;99.90;;;;;;5006569;28;21434;-72
2022/12/19 06:16:09;;;;;;;60.28;27.13;;;0.60;99.90;;;;;;5009658;28;20089;-72
2022/12/19 06:18:35;;;;;;;59.92;25.75;;;0.50;99.90;;;;;;5012476;28;20029;-72
2022/12/19 06:21:06;;;;;;;58.88;25.45;;;0.50;99.90;;;;;;5008598;28;20029;-72
2022/12/19 06:23:34;;;;;;;59.08;24.48;;;0.50;99.90;;;;;;5010001;28;20045;-72
2022/12/19 06:26:01;;;;;;;52.72;23.60;;;0.50;99.90;;;;;;5006505;28;20054;-72
2022/12/19 06:28:31;;;;;;;60.67;26.00;;;0.50;99.90;;;;;;5008889;28;20045;-71
2022/12/19 06:31:06;;;;;;;49.45;23.92;;;0.50;99.90;;;;;;5008426;28;20041;-72
2022/12/19 06:33:32;;;;;;;56.03;25.67;;;0.50;99.90;;;;;;5006422;28;20064;-72
2022/12/19 06:36:18;;;;;;;51.72;24.52;;;0.50;99.90;;;;;;5008011;28;20033;-71
2022/12/19 06:38:47;;;;;;;56.20;25.33;;;0.50;99.90;;;;;;5007245;28;20018;-71
2022/12/19 06:44:03;;;;;;;51.15;22.27;;;0.50;99.90;;;;;;5003684;28;21490;-72
2022/12/19 06:46:29;;;;;;;52.17;21.83;;;0.50;99.90;;;;;;5003986;28;20113;-71
2022/12/19 06:48:55;;;;;;;48.13;22.25;;;0.50;99.90;;;;;;5004056;28;20034;-71
2022/12/19 06:51:22;;;;;;;50.72;22.50;;;0.50;99.90;;;;;;4997023;28;20045;-71
2022/12/19 06:53:48;;;;;;;48.80;21.38;;;0.50;99.90;;;;;;5002466;28;20029;-71
2022/12/19 06:56:15;;;;;;;50.25;21.67;;;0.50;99.90;;;;;;5006708;28;20026;-71
2022/12/19 06:58:42;;;;;;;50.13;21.95;;;0.50;99.90;;;;;;5015014;28;20021;-72
2022/12/19 07:01:15;;;;;;;48.53;21.98;;;0.50;99.90;;;;;;5007340;28;20081;-71
2022/12/19 07:03:40;;;;;;;42.38;20.38;;;0.50;99.90;;;;;;5008368;28;20034;-71
2022/12/19 07:06:07;;;;;;;52.15;21.33;;;0.50;99.90;;;;;;5010652;28;20026;-71
2022/12/19 07:08:33;;;;;;;51.90;20.73;;;0.50;99.90;;;;;;5010901;28;20045;-70
2022/12/19 07:10:59;;;;;;;49.40;20.02;;;0.50;99.90;;;;;;5012138;28;20418;-72
2022/12/19 07:13:24;;;;;;;52.00;21.15;;;0.60;99.90;;;;;;5006392;28;20034;-72
2022/12/19 07:15:53;;;;;;;43.35;19.58;;;0.60;99.90;;;;;;5011183;28;20026;-71
2022/12/19 07:18:19;;;;;;;45.15;20.10;;;0.60;99.90;;;;;;5011006;28;20208;-71
2022/12/19 07:20:47;;;;;;;45.97;20.83;;;0.60;99.90;;;;;;5011703;28;20582;-71
2022/12/19 07:23:21;;;;;;;43.90;20.63;;;0.60;99.90;;;;;;5001101;28;20033;-70
2022/12/19 07:25:46;;;;;;;;;;;0.60;99.90;;;;;;5013262;28;20033;-70
2022/12/19 07:28:13;;;;;;;46.75;21.10;;;0.60;99.90;;;;;;5010079;28;19920;-72
2022/12/19 07:30:38;;;;;;;47.13;20.30;;;0.60;99.90;;;;;;5008855;28;20108;-71
2022/12/19 07:33:07;;;;;;;51.00;22.92;;;0.70;99.90;;;;;;5013733;28;20562;-73
2022/12/19 07:35:32;;;;;;;57.95;22.23;;;0.70;99.90;;;;;;5022000;28;20176;-73
2022/12/19 07:38:02;;;;;;;52.30;22.58;;;0.70;99.90;;;;;;4995673;28;20492;-72
2022/12/19 07:40:31;;;;;;;45.97;20.95;;;0.70;99.90;;;;;;5009381;28;20434;-72
2022/12/19 07:43:04;;;;;;;48.40;22.02;;;0.70;99.90;;;;;;5015402;28;20034;-72
2022/12/19 07:45:31;;;;;;;49.17;23.92;;;0.70;99.90;;;;;;5011935;28;20084;-72
2022/12/19 07:48:02;;;;;;;51.63;24.38;;;0.70;99.90;;;;;;5014822;28;20147;-72
2022/12/19 07:50:28;;;;;;;47.97;23.90;;;0.70;99.90;;;;;;5007565;28;20376;-72
2022/12/19 07:52:54;;;;;;;51.30;22.95;;;0.70;99.90;;;;;;5014617;28;20112;-71
2022/12/19 07:55:19;;;;;;;51.28;22.52;;;0.70;99.90;;;;;;5015734;28;20085;-72
2022/12/19 07:57:45;;;;;;;44.38;20.58;;;0.70;99.90;;;;;;5013959;28;20056;-72
2022/12/19 08:00:11;;;;;;;50.88;22.67;;;0.70;99.90;;;;;;5014521;28;20041;-72
2022/12/19 08:02:37;;;;;;;49.63;23.20;;;0.70;99.90;;;;;;5016048;28;20430;-73
2022/12/19 08:05:04;;;;;;;50.67;21.70;;;0.80;99.90;;;;;;5016420;28;20034;-72
2022/12/19 08:07:30;;;;;;;49.08;22.60;;;0.80;99.90;;;;;;5013187;28;20025;-73
2022/12/19 08:09:55;;;;;;;50.35;21.63;;;0.80;99.90;;;;;;5015887;28;20113;-71
2022/12/19 08:12:21;;;;;;;53.42;22.42;;;0.80;99.90;;;;;;5011398;28;20547;-71
2022/12/19 08:14:47;;;;;;;43.58;20.50;;;0.80;99.90;;;;;;5015053;28;20034;-71
2022/12/19 08:17:13;;;;;;;49.00;21.95;;;0.90;99.90;;;;;;5015436;28;20148;-71
2022/12/19 08:19:38;;;;;;;46.72;20.98;;;0.80;99.90;;;;;;5012331;28;20037;-70
2022/12/19 08:22:04;;;;;;;46.40;22.00;;;0.90;99.90;;;;;;5012427;28;20427;-71
2022/12/19 08:24:30;;;;;;;43.50;20.40;;;0.90;99.90;;;;;;5017601;28;20124;-71
2022/12/19 08:26:56;;;;;;;51.33;21.25;;;0.90;99.90;;;;;;5010897;28;20036;-72
2022/12/19 08:29:22;;;;;;;47.05;19.77;;;0.90;99.90;;;;;;5011961;28;20030;-73
2022/12/19 08:31:48;;;;;;;48.72;20.92;;;0.90;99.90;;;;;;5011393;28;20036;-72
2022/12/19 08:34:14;;;;;;;43.92;20.05;;;1.00;99.90;;;;;;5015688;28;20038;-73
2022/12/19 08:36:39;;;;;;;45.15;19.77;;;1.00;99.90;;;;;;5012705;28;20083;-73
2022/12/19 08:39:05;;;;;;;42.60;21.65;;;1.00;99.90;;;;;;5010468;28;20018;-73
2022/12/19 08:41:34;;;;;;;45.28;19.85;;;1.00;99.90;;;;;;5007369;28;20026;-73
2022/12/19 08:44:00;;;;;;;43.90;19.90;;;1.10;99.90;;;;;;5013143;28;20028;-73
2022/12/19 08:46:26;;;;;;;41.88;18.77;;;1.00;99.90;;;;;;5012084;28;20386;-72
2022/12/19 08:48:52;;;;;;;41.92;20.02;;;1.10;99.90;;;;;;5006384;28;20285;-73
2022/12/19 08:51:18;;;;;;;42.20;19.35;;;1.10;99.90;;;;;;5012239;28;20084;-73
2022/12/19 08:53:45;;;;;;;40.90;19.45;;;1.10;99.90;;;;;;5010047;28;20442;-72
2022/12/19 08:56:14;;;;;;;47.25;18.58;;;1.10;99.90;;;;;;5014468;28;20020;-72
2022/12/19 08:58:43;;;;;;;47.65;20.52;;;1.20;99.90;;;;;;5012139;28;20046;-72
2022/12/19 09:01:13;;;;;;;41.05;19.17;;;1.20;99.90;;;;;;5012208;28;20068;-72
2022/12/19 09:03:39;;;;;;;40.60;17.70;;;1.20;99.90;;;;;;5010468;28;20362;-72
2022/12/19 09:06:07;;;;;;;41.30;18.92;;;1.30;99.90;;;;;;5008721;28;20030;-73
2022/12/19 09:08:34;;;;;;;42.83;19.73;;;1.30;99.90;;;;;;5011818;28;20479;-72
2022/12/19 09:11:10;;;;;;;36.67;17.20;;;1.40;99.90;;;;;;5011376;28;20076;-73
2022/12/19 09:13:37;;;;;;;39.58;18.00;;;1.40;99.90;;;;;;5010649;28;20368;-72
2022/12/19 09:16:14;;;;;;;39.60;18.58;;;1.40;99.90;;;;;;5007072;28;20551;-73
2022/12/19 09:18:41;;;;;;;41.75;18.13;;;1.40;99.90;;;;;;5011490;28;20022;-73
2022/12/19 09:21:07;;;;;;;37.50;18.30;;;1.50;99.90;;;;;;5011164;28;20022;-72
2022/12/19 09:23:32;;;;;;;38.92;17.45;;;1.50;99.90;;;;;;5010633;28;20569;-72
2022/12/19 09:26:04;;;;;;;38.95;18.92;;;1.50;99.90;;;;;;5010882;28;20030;-72
2022/12/19 09:28:30;;;;;;;43.42;17.80;;;1.60;99.90;;;;;;5009719;28;20030;-72
2022/12/19 09:30:58;;;;;;;39.53;18.00;;;1.60;99.90;;;;;;5013618;28;20065;-72
2022/12/19 09:33:24;;;;;;;41.95;18.42;;;1.70;99.90;;;;;;5010862;28;20030;-71
2022/12/19 09:35:54;;;;;;;36.25;16.83;;;1.70;99.90;;;;;;5007522;28;20057;-72
2022/12/19 09:38:20;;;;;;;34.22;16.80;;;1.70;99.90;;;;;;5008263;28;20385;-72
2022/12/19 09:41:20;;;;;;;36.65;17.63;;;1.80;99.90;;;;;;5009618;28;20026;-72
2022/12/19 09:44:03;;;;;;;43.38;17.60;;;1.70;99.90;;;;;;5008337;28;20026;-72
2022/12/19 09:46:46;;;;;;;60.65;25.02;;;1.80;99.90;;;;;;5022909;28;20037;-72
2022/12/19 09:49:16;;;;;;;54.92;23.65;;;1.90;99.90;;;;;;5008807;28;20058;-72
2022/12/19 09:51:57;;;;;;;51.95;23.10;;;1.90;99.90;;;;;;5006420;28;20038;-72
2022/12/19 09:54:31;;;;;;;50.40;21.17;;;1.90;99.90;;;;;;5003231;28;20092;-72
2022/12/19 09:57:04;;;;;;;42.30;18.80;;;2.00;99.90;;;;;;5021558;28;20061;-72
2022/12/19 09:59:46;;;;;;;36.28;17.73;;;2.00;99.90;;;;;;5010824;28;20030;-72
2022/12/19 10:02:43;;;;;;;41.28;19.70;;;2.10;99.90;;;;;;5001759;28;20483;-72
2022/12/19 10:05:21;;;;;;;40.33;19.65;;;2.10;99.90;;;;;;5010883;28;20505;-72
2022/12/19 10:07:47;;;;;;;46.38;20.08;;;2.20;99.90;;;;;;5003182;28;20117;-73
2022/12/19 10:10:19;;;;;;;45.42;19.45;;;2.20;99.90;;;;;;5012886;28;20069;-72
2022/12/19 10:12:57;;;;;;;47.17;20.25;;;2.20;99.90;;;;;;5006149;28;20084;-71
2022/12/19 10:15:44;;;;;;;46.20;21.50;;;2.20;99.90;;;;;;5012084;28;20478;-72
2022/12/19 10:18:18;;;;;;;44.28;21.25;;;2.20;99.90;;;;;;5009534;28;20437;-72
2022/12/19 10:21:07;;;;;;;47.20;22.38;;;2.20;99.90;;;;;;5008144;28;20018;-72
2022/12/19 10:23:59;;;;;;;46.17;21.27;;;2.20;99.90;;;;;;5011835;28;20057;-72
2022/12/19 10:26:53;;;;;;;52.95;24.80;;;2.30;99.90;;;;;;5024314;28;20030;-74
2022/12/19 10:29:46;;;;;;;50.58;22.83;;;2.30;99.90;;;;;;5007016;28;20486;-74
2022/12/19 10:32:46;;;;;;;52.10;24.42;;;2.30;99.90;;;;;;5019007;28;20064;-75
2022/12/19 10:35:19;;;;;;;51.33;23.10;;;2.30;99.90;;;;;;5007957;28;20054;-75
2022/12/19 10:38:22;;;;;;;45.80;23.23;;;2.30;99.90;;;;;;5012382;28;20080;-76
2022/12/19 10:41:20;;;;;;;52.65;24.08;;;2.30;99.90;;;;;;5008235;28;20399;-77
2022/12/19 10:44:05;;;;;;;44.42;22.42;;;2.30;99.90;;;;;;5008206;28;20026;-76
2022/12/19 10:46:39;;;;;;;50.50;23.00;;;2.30;99.90;;;;;;5005629;28;20054;-76
2022/12/19 10:49:24;;;;;;;53.53;22.98;;;2.40;99.90;;;;;;5002028;28;20022;-75
2022/12/19 10:52:00;;;;;;;52.72;23.13;;;2.40;99.90;;;;;;5010467;28;20026;-74
2022/12/19 10:54:47;;;;;;;46.65;22.52;;;2.40;99.90;;;;;;5011099;28;20426;-76
2022/12/19 10:57:24;;;;;;;52.72;22.17;;;2.40;99.90;;;;;;5010775;28;20040;-76
2022/12/19 10:59:56;;;;;;;46.10;21.15;;;2.50;99.90;;;;;;5001485;28;20064;-75
2022/12/19 11:02:34;;;;;;;50.47;22.05;;;2.50;99.90;;;;;;5006219;28;20201;-75
2022/12/19 11:05:01;;;;;;;43.55;21.20;;;2.60;99.90;;;;;;5007123;28;20026;-75
2022/12/19 11:07:27;;;;;;;41.88;20.40;;;2.60;99.90;;;;;;5002823;28;20521;-75
2022/12/19 11:09:52;;;;;;;44.47;20.33;;;2.60;99.90;;;;;;5008184;28;20113;-75
2022/12/19 11:12:18;;;;;;;42.22;20.58;;;2.70;99.90;;;;;;5007826;28;20034;-75
2022/12/19 11:15:12;;;;;;;39.60;19.25;;;2.70;99.90;;;;;;5005366;28;20057;-75
2022/12/19 11:17:38;;;;;;;40.58;19.55;;;2.70;99.90;;;;;;4994171;28;20026;-74
2022/12/19 11:20:18;;;;;;;43.20;20.80;;;2.70;99.90;;;;;;5009293;28;20037;-75
2022/12/19 11:22:58;;;;;;;41.65;18.42;;;2.80;99.90;;;;;;5009821;28;20030;-75
2022/12/19 11:25:37;;;;;;;39.65;19.20;;;2.80;99.90;;;;;;5002132;28;20034;-76
2022/12/19 11:28:11;;;;;;;39.35;20.15;;;2.80;99.90;;;;;;5005670;28;20037;-75
2022/12/19 11:30:36;;;;;;;38.42;19.58;;;2.80;99.90;;;;;;5005748;28;20021;-75
2022/12/19 11:33:17;;;;;;;40.75;20.65;;;2.90;99.90;;;;;;5004635;28;20554;-75
2022/12/19 11:36:02;;;;;;;35.15;18.48;;;2.90;99.90;;;;;;5010587;28;20390;-75
2022/12/19 11:38:37;;;;;;;34.53;18.77;;;3.00;99.90;;;;;;5007041;28;20037;-75
2022/12/19 11:41:15;;;;;;;35.65;17.30;;;3.00;99.90;;;;;;5008923;28;20100;-75
2022/12/19 11:43:43;;;;;;;44.25;20.38;;;3.10;99.90;;;;;;5009534;28;20034;-75
2022/12/19 11:46:33;;;;;;;52.30;23.75;;;3.10;99.90;;;;;;5007381;28;20033;-75
2022/12/19 11:49:07;;;;;;;46.72;22.55;;;3.10;99.90;;;;;;5008340;28;20018;-75
2022/12/19 11:51:42;;;;;;;50.50;23.25;;;3.20;99.90;;;;;;5006577;28;20038;-75
2022/12/19 11:54:26;;;;;;;48.83;23.98;;;3.20;99.90;;;;;;5011413;28;20030;-75
2022/12/19 11:56:52;;;;;;;44.67;22.02;;;3.30;99.90;;;;;;5008669;28;20022;-75
2022/12/19 11:59:20;;;;;;;43.85;22.15;;;3.30;99.90;;;;;;5002185;28;20532;-75
2022/12/19 12:02:11;;;;;;;47.13;23.17;;;3.30;99.90;;;;;;5006243;28;20100;-74
2022/12/19 12:04:52;;;;;;;40.67;21.80;;;3.30;99.90;;;;;;5009244;28;20038;-77
2022/12/19 12:07:27;;;;;;;38.72;18.83;;;3.30;99.90;;;;;;5010037;28;20478;-74
2022/12/19 12:10:11;;;;;;;48.08;21.70;;;3.30;99.90;;;;;;5002646;28;20038;-74
2022/12/19 12:12:42;;;;;;;38.40;19.92;;;3.40;99.90;;;;;;5006823;28;20034;-75
2022/12/19 12:15:32;;;;;;;38.97;20.67;;;3.40;99.90;;;;;;5003373;28;20041;-75
2022/12/19 12:18:10;;;;;;;40.65;21.17;;;3.40;99.90;;;;;;5005654;28;20030;-76
2022/12/19 12:20:41;;;;;;;38.70;19.63;;;3.50;99.90;;;;;;5004351;28;20107;-75
2022/12/19 12:23:38;;;;;;;38.08;19.58;;;3.50;99.90;;;;;;5003781;28;20037;-74
2022/12/19 12:26:27;;;;;;;43.53;20.45;;;3.50;99.90;;;;;;5001500;28;20481;-74
2022/12/19 12:28:59;;;;;;;39.83;19.67;;;3.50;99.90;;;;;;5001593;28;20104;-75
2022/12/19 12:31:52;;;;;;;38.22;19.17;;;3.50;99.90;;;;;;5003885;28;20509;-74
2022/12/19 12:34:27;;;;;;;34.40;18.87;;;3.40;99.90;;;;;;5008636;28;20491;-75
2022/12/19 12:37:11;;;;;;;42.10;19.65;;;3.40;99.90;;;;;;5005741;28;20103;-76
2022/12/19 12:40:19;;;;;;;40.45;19.25;;;3.40;99.90;;;;;;5012238;28;20034;-77
2022/12/19 12:43:05;;;;;;;36.70;18.70;;;3.30;99.90;;;;;;5005861;28;20034;-75
2022/12/19 12:45:38;;;;;;;34.55;18.58;;;3.30;99.90;;;;;;5011300;28;20026;-74
2022/12/19 12:48:22;;;;;;;35.45;18.08;;;3.30;99.90;;;;;;5013260;28;20030;-74
2022/12/19 12:50:50;;;;;;;35.10;18.33;;;3.30;99.90;;;;;;5006933;28;20069;-75
2022/12/19 12:53:20;;;;;;;40.70;20.48;;;3.30;99.90;;;;;;5011653;28;20493;-74
2022/12/19 12:55:47;;;;;;;35.05;18.98;;;3.30;99.90;;;;;;5009499;28;20034;-75
2022/12/19 12:58:41;;;;;;;38.40;20.27;;;3.20;99.90;;;;;;5012016;28;20034;-75
2022/12/19 13:01:29;;;;;;;40.70;20.17;;;3.20;99.90;;;;;;5004610;28;20497;-74
2022/12/19 13:04:11;;;;;;;38.15;19.38;;;3.30;99.90;;;;;;5009621;28;20113;-74
2022/12/19 13:06:50;;;;;;;38.25;18.75;;;3.20;99.90;;;;;;5007887;28;20041;-75
2022/12/19 13:09:26;;;;;;;44.25;20.33;;;3.30;99.90;;;;;;5008768;28;20499;-74